Time;durP1;ratioP1;P1;durP2;ratioP2;P2;SDS_P1;SDS_P2;PMS_P1;PMS_P2;Temp;Humidity;BMP_temperature;BMP_pressure;BME280_temperature;BME280_humidity;BME280_pressure;Samples;Min_cycle;Max_cycle;Signal;HPM_P1;HPM_P2
2024/01/02 00:01:34;;;;;;;8.02;1.63;;;6.10;99.90;;;;;;5024540;28;20467;-35
2024/01/02 00:04:00;;;;;;;5.45;1.60;;;6.20;99.90;;;;;;5023699;28;20447;-35
2024/01/02 00:06:26;;;;;;;10.35;1.88;;;6.10;99.90;;;;;;5021630;28;20057;-35
2024/01/02 00:08:51;;;;;;;7.13;1.40;;;6.10;99.90;;;;;;5025589;28;20442;-35
2024/01/02 00:11:18;;;;;;;7.55;1.33;;;6.10;99.90;;;;;;4998893;28;20138;-34
2024/01/02 00:13:44;;;;;;;7.60;1.63;;;6.10;99.90;;;;;;5025459;28;20063;-35
2024/01/02 00:16:09;;;;;;;5.85;1.25;;;6.10;99.90;;;;;;5023049;28;20421;-35
2024/01/02 00:18:35;;;;;;;5.63;1.20;;;6.10;99.90;;;;;;5022019;28;20053;-35
2024/01/02 00:21:01;;;;;;;9.65;1.83;;;6.10;99.90;;;;;;5022607;28;20061;-35
2024/01/02 00:23:27;;;;;;;8.70;1.60;;;6.10;99.90;;;;;;5007513;28;20053;-35
2024/01/02 00:25:54;;;;;;;7.75;1.33;;;6.10;99.90;;;;;;5005236;28;20153;-35
2024/01/02 00:28:20;;;;;;;9.00;2.08;;;6.10;99.90;;;;;;5026502;28;20132;-34
2024/01/02 00:30:46;;;;;;;10.18;1.80;;;6.10;99.90;;;;;;5021314;28;20457;-35
2024/01/02 00:33:11;;;;;;;13.75;1.65;;;6.10;99.90;;;;;;5018805;28;20064;-35
2024/01/02 00:35:37;;;;;;;6.78;1.30;;;6.10;99.90;;;;;;5023314;28;20041;-35
2024/01/02 00:38:03;;;;;;;8.20;1.63;;;6.10;99.90;;;;;;5023418;28;20049;-34
2024/01/02 00:40:29;;;;;;;9.18;1.77;;;6.10;99.90;;;;;;5013900;28;20045;-35
2024/01/02 00:42:56;;;;;;;11.18;1.50;;;6.10;99.90;;;;;;5019515;28;20050;-36
2024/01/02 00:45:22;;;;;;;8.32;2.00;;;6.10;99.90;;;;;;5000420;28;20061;-35
2024/01/02 00:47:48;;;;;;;6.47;1.20;;;6.10;99.90;;;;;;5024102;28;20056;-35
2024/01/02 00:50:14;;;;;;;9.00;1.35;;;6.10;99.90;;;;;;5023607;28;20045;-35
2024/01/02 00:52:39;;;;;;;6.97;1.70;;;6.20;99.90;;;;;;5024352;28;20060;-36
2024/01/02 00:55:06;;;;;;;7.40;1.25;;;6.20;99.90;;;;;;5025574;28;20049;-35
2024/01/02 00:57:32;;;;;;;10.70;1.73;;;6.20;99.90;;;;;;5023028;28;20136;-36
2024/01/02 00:59:58;;;;;;;7.13;1.65;;;6.20;99.90;;;;;;5024747;28;20128;-35
2024/01/02 01:02:24;;;;;;;9.30;1.73;;;6.20;99.90;;;;;;5022253;28;20057;-35
2024/01/02 01:04:50;;;;;;;15.07;2.03;;;6.20;99.90;;;;;;5025033;28;20059;-35
2024/01/02 01:07:16;;;;;;;10.70;1.50;;;6.20;99.90;;;;;;5024607;28;20065;-35
2024/01/02 01:09:42;;;;;;;8.23;1.13;;;6.20;99.90;;;;;;5022629;28;20410;-35
2024/01/02 01:12:08;;;;;;;5.35;1.42;;;6.20;99.90;;;;;;5002652;28;20353;-35
2024/01/02 01:14:35;;;;;;;8.73;1.30;;;6.20;99.90;;;;;;5022927;28;20049;-35
2024/01/02 01:17:01;;;;;;;12.63;2.53;;;6.30;99.90;;;;;;5001978;28;20049;-35
2024/01/02 01:19:27;;;;;;;11.63;2.00;;;6.30;99.90;;;;;;5017589;28;20045;-34
2024/01/02 01:21:53;;;;;;;7.38;1.98;;;6.30;99.90;;;;;;5013042;28;20045;-34
2024/01/02 01:24:18;;;;;;;12.50;2.13;;;6.30;99.90;;;;;;5024400;28;20454;-35
2024/01/02 01:26:45;;;;;;;8.05;1.73;;;6.40;99.90;;;;;;5004297;28;20384;-35
2024/01/02 01:29:12;;;;;;;11.85;1.60;;;6.40;99.90;;;;;;5009675;28;20807;-35
2024/01/02 01:31:38;;;;;;;10.68;2.30;;;6.40;99.90;;;;;;5023970;28;20048;-35
2024/01/02 01:34:04;;;;;;;8.25;1.75;;;6.40;99.90;;;;;;5005187;28;20398;-35
2024/01/02 01:36:29;;;;;;;7.47;1.90;;;6.40;99.90;;;;;;5021546;28;20045;-34
2024/01/02 01:38:55;;;;;;;9.90;1.48;;;6.40;99.90;;;;;;5014761;28;20080;-35
2024/01/02 01:41:21;;;;;;;7.32;1.80;;;6.40;99.90;;;;;;5022019;28;20076;-36
2024/01/02 01:43:47;;;;;;;9.63;1.92;;;6.40;99.90;;;;;;5026916;28;20037;-34
2024/01/02 01:46:15;;;;;;;6.93;1.50;;;6.50;99.90;;;;;;5027480;28;20057;-34
2024/01/02 01:48:41;;;;;;;10.32;1.85;;;6.50;99.90;;;;;;5017740;28;20060;-33
2024/01/02 01:51:07;;;;;;;10.25;1.98;;;6.50;99.90;;;;;;5030171;28;20049;-35
2024/01/02 01:53:34;;;;;;;9.73;1.90;;;6.50;99.90;;;;;;5015301;28;20156;-35
2024/01/02 01:56:02;;;;;;;11.65;1.83;;;6.50;99.90;;;;;;5001494;28;20061;-35
2024/01/02 01:58:29;;;;;;;9.43;1.88;;;6.50;99.90;;;;;;5029116;28;20156;-35
2024/01/02 02:00:55;;;;;;;8.20;1.60;;;6.50;99.90;;;;;;5022942;28;20049;-34
2024/01/02 02:03:25;;;;;;;7.90;1.73;;;6.50;99.90;;;;;;5026402;28;20069;-34
2024/01/02 02:05:51;;;;;;;9.73;1.65;;;6.50;99.90;;;;;;5026054;28;20064;-35
2024/01/02 02:08:16;;;;;;;8.57;1.60;;;6.50;99.90;;;;;;5026088;28;20526;-35
2024/01/02 02:10:42;;;;;;;10.68;1.55;;;6.50;99.90;;;;;;5027299;28;20127;-34
2024/01/02 02:13:08;;;;;;;10.15;1.88;;;6.50;99.90;;;;;;5026478;28;20404;-35
2024/01/02 02:15:38;;;;;;;10.95;1.60;;;6.50;99.90;;;;;;5017070;28;20159;-35
2024/01/02 02:18:05;;;;;;;6.65;1.90;;;6.50;99.90;;;;;;5028996;28;20154;-35
2024/01/02 02:20:30;;;;;;;7.10;1.48;;;6.50;99.90;;;;;;5028243;28;20049;-36
2024/01/02 02:22:56;;;;;;;10.63;2.10;;;6.50;99.90;;;;;;5020654;28;20053;-35
2024/01/02 02:25:22;;;;;;;8.18;2.25;;;6.50;99.90;;;;;;5029417;28;20080;-34
2024/01/02 02:27:48;;;;;;;9.82;2.03;;;6.60;99.90;;;;;;5029168;28;20375;-34
2024/01/02 02:30:14;;;;;;;7.25;1.70;;;6.60;99.90;;;;;;5027378;28;20095;-34
2024/01/02 02:32:40;;;;;;;7.95;1.35;;;6.60;99.90;;;;;;5025301;28;20045;-34
2024/01/02 02:35:06;;;;;;;6.82;1.13;;;6.60;99.90;;;;;;5027973;28;20050;-34
2024/01/02 02:37:32;;;;;;;8.52;1.33;;;6.60;99.90;;;;;;5024316;28;20056;-34
2024/01/02 02:39:58;;;;;;;6.50;1.40;;;6.60;99.90;;;;;;5024740;28;20403;-34
2024/01/02 02:42:23;;;;;;;7.68;1.40;;;6.60;99.90;;;;;;5019627;28;20137;-34
2024/01/02 02:44:49;;;;;;;7.32;1.30;;;6.60;99.90;;;;;;5016895;28;20481;-34
2024/01/02 02:47:15;;;;;;;8.90;1.60;;;6.60;99.90;;;;;;5009373;28;20038;-35
2024/01/02 02:49:42;;;;;;;4.97;1.40;;;6.70;99.90;;;;;;5027866;28;20045;-35
2024/01/02 02:52:08;;;;;;;5.75;1.63;;;6.70;99.90;;;;;;5026044;28;20415;-35
2024/01/02 02:54:34;;;;;;;6.93;1.40;;;6.60;99.90;;;;;;5010801;28;20054;-35
2024/01/02 02:57:00;;;;;;;7.75;1.67;;;6.70;99.90;;;;;;5005299;28;20064;-34
2024/01/02 02:59:26;;;;;;;7.40;1.42;;;6.60;99.90;;;;;;5000810;28;20045;-34
2024/01/02 03:01:51;;;;;;;4.38;1.25;;;6.70;99.90;;;;;;5018344;28;20045;-35
2024/01/02 03:04:17;;;;;;;5.47;1.10;;;6.70;99.90;;;;;;5021327;28;20704;-34
2024/01/02 03:06:43;;;;;;;4.35;1.15;;;6.70;99.90;;;;;;5027442;28;20099;-34
2024/01/02 03:09:10;;;;;;;3.97;1.23;;;6.70;99.90;;;;;;5022846;28;20049;-35
2024/01/02 03:11:35;;;;;;;7.88;1.35;;;6.70;99.90;;;;;;5021821;28;20049;-35
2024/01/02 03:14:02;;;;;;;5.70;1.55;;;6.70;99.90;;;;;;5006922;28;20327;-35
2024/01/02 03:16:28;;;;;;;3.40;1.42;;;6.70;99.90;;;;;;5022911;28;20641;-35
2024/01/02 03:18:54;;;;;;;4.47;1.40;;;6.70;99.90;;;;;;5012617;28;20132;-35
2024/01/02 03:21:27;;;;;;;5.03;1.60;;;6.70;99.90;;;;;;5028788;28;20072;-35
2024/01/02 03:23:54;;;;;;;6.10;1.70;;;6.70;99.90;;;;;;5026194;28;20049;-35
2024/01/02 03:26:19;;;;;;;5.50;1.80;;;6.70;99.90;;;;;;5027376;28;20057;-35
2024/01/02 03:28:45;;;;;;;5.90;1.65;;;6.70;99.90;;;;;;5026927;28;20050;-35
2024/01/02 03:31:12;;;;;;;4.15;1.48;;;6.70;99.90;;;;;;5011873;28;20053;-34
2024/01/02 03:33:38;;;;;;;5.88;1.55;;;6.70;99.90;;;;;;4997824;28;20046;-34
2024/01/02 03:36:04;;;;;;;3.58;1.13;;;6.70;99.90;;;;;;4984507;28;20057;-36
2024/01/02 03:38:31;;;;;;;6.30;1.90;;;6.70;99.90;;;;;;5027060;28;20124;-34
2024/01/02 03:40:56;;;;;;;6.68;1.88;;;6.70;99.90;;;;;;5020858;28;20045;-34
2024/01/02 03:43:22;;;;;;;5.07;1.40;;;6.70;99.90;;;;;;5025642;28;20053;-35
2024/01/02 03:45:48;;;;;;;7.88;2.08;;;6.70;99.90;;;;;;5014133;28;20534;-34
2024/01/02 03:48:13;;;;;;;5.97;1.77;;;6.70;99.90;;;;;;5023683;28;20033;-35
2024/01/02 03:50:39;;;;;;;2.67;1.10;;;6.70;99.90;;;;;;5025586;28;20049;-34
2024/01/02 03:53:05;;;;;;;4.50;1.08;;;6.70;99.90;;;;;;5026027;28;20053;-36
2024/01/02 03:55:30;;;;;;;6.15;1.63;;;6.70;99.90;;;;;;5019037;28;20396;-35
2024/01/02 03:57:56;;;;;;;5.38;1.48;;;6.70;99.90;;;;;;5024382;28;20099;-35
2024/01/02 04:00:22;;;;;;;4.45;1.30;;;6.80;99.90;;;;;;5025484;28;20064;-35
2024/01/02 04:02:47;;;;;;;4.85;1.25;;;6.80;99.90;;;;;;5020653;28;20048;-35
2024/01/02 04:05:15;;;;;;;2.17;1.20;;;6.80;99.90;;;;;;5025547;28;20487;-35
2024/01/02 04:07:40;;;;;;;3.33;1.50;;;6.70;99.90;;;;;;5026282;28;20052;-35
2024/01/02 04:10:06;;;;;;;3.58;1.38;;;6.80;99.90;;;;;;5013762;28;20495;-35
2024/01/02 04:12:32;;;;;;;2.33;1.10;;;6.80;99.90;;;;;;5012363;28;20128;-35
2024/01/02 04:14:58;;;;;;;3.35;1.30;;;6.80;99.90;;;;;;5021694;28;20407;-35
2024/01/02 04:17:23;;;;;;;4.28;1.55;;;6.80;99.90;;;;;;5006390;28;20042;-36
2024/01/02 04:19:49;;;;;;;3.35;1.30;;;6.80;99.90;;;;;;5023673;28;20049;-34
2024/01/02 04:22:15;;;;;;;3.72;1.42;;;6.70;99.90;;;;;;5011461;28;20064;-34
2024/01/02 04:24:40;;;;;;;3.33;1.55;;;6.80;99.90;;;;;;5027736;28;20548;-34
2024/01/02 04:27:06;;;;;;;3.33;1.10;;;6.80;99.90;;;;;;5015544;28;20064;-34
2024/01/02 04:29:32;;;;;;;2.75;1.50;;;6.80;99.90;;;;;;5025299;28;20107;-34
2024/01/02 04:31:59;;;;;;;4.22;1.27;;;6.80;99.90;;;;;;5016204;28;20395;-36
2024/01/02 04:34:24;;;;;;;4.75;1.45;;;6.80;99.90;;;;;;4990317;28;20703;-36
2024/01/02 04:36:50;;;;;;;4.22;1.50;;;6.80;99.90;;;;;;4997847;28;20046;-35
2024/01/02 04:39:16;;;;;;;2.50;1.15;;;6.80;99.90;;;;;;5027028;28;20057;-35
2024/01/02 04:41:42;;;;;;;2.85;1.30;;;6.80;99.90;;;;;;5027854;28;20076;-35
2024/01/02 04:44:07;;;;;;;3.80;1.40;;;6.80;99.90;;;;;;5004660;28;20104;-34
2024/01/02 04:46:35;;;;;;;2.53;1.10;;;6.80;99.90;;;;;;5025179;28;20050;-35
2024/01/02 04:49:00;;;;;;;3.17;1.60;;;6.80;99.90;;;;;;5025325;28;20136;-35
2024/01/02 04:51:28;;;;;;;2.95;1.27;;;6.80;99.90;;;;;;5021013;28;20436;-35
2024/01/02 04:53:54;;;;;;;2.67;1.40;;;6.80;99.90;;;;;;5016546;28;20145;-35
2024/01/02 04:56:19;;;;;;;1.95;1.40;;;6.80;99.90;;;;;;5025510;28;20061;-40
2024/01/02 04:58:45;;;;;;;3.13;1.45;;;6.80;99.90;;;;;;5025502;28;20466;-34
2024/01/02 05:01:11;;;;;;;3.25;1.50;;;6.80;99.90;;;;;;5023728;28;20123;-34
2024/01/02 05:03:36;;;;;;;3.33;1.60;;;6.80;99.90;;;;;;5028212;28;21835;-34
2024/01/02 05:06:02;;;;;;;4.80;1.58;;;6.90;99.90;;;;;;5022055;28;20058;-34
2024/01/02 05:08:29;;;;;;;2.38;1.45;;;6.90;99.90;;;;;;5020739;28;20213;-34
2024/01/02 05:10:55;;;;;;;2.42;1.52;;;6.80;99.90;;;;;;5021083;28;20495;-34
2024/01/02 05:13:21;;;;;;;2.72;1.52;;;6.80;99.90;;;;;;5024579;28;20045;-34
2024/01/02 05:15:46;;;;;;;3.92;1.83;;;6.90;99.90;;;;;;5024721;28;20578;-35
2024/01/02 05:18:12;;;;;;;4.13;1.60;;;6.90;99.90;;;;;;5024270;28;20064;-35
2024/01/02 05:20:38;;;;;;;4.47;1.40;;;6.90;99.90;;;;;;5019574;28;20136;-34
2024/01/02 05:23:04;;;;;;;2.15;1.40;;;6.90;99.90;;;;;;5002593;28;20053;-35
2024/01/02 05:25:31;;;;;;;2.40;1.20;;;6.90;99.90;;;;;;5011533;28;20053;-34
2024/01/02 05:27:57;;;;;;;2.60;1.17;;;6.90;99.90;;;;;;5023804;28;20045;-35
2024/01/02 05:30:23;;;;;;;1.90;1.13;;;6.90;99.90;;;;;;5015733;28;20537;-34
2024/01/02 05:32:49;;;;;;;2.88;1.50;;;7.00;99.90;;;;;;5022801;28;20057;-34
2024/01/02 05:35:15;;;;;;;2.83;1.17;;;7.00;99.90;;;;;;5022329;28;20153;-34
2024/01/02 05:37:41;;;;;;;2.45;1.20;;;7.00;99.90;;;;;;5003881;28;20134;-34
2024/01/02 05:40:09;;;;;;;2.50;1.20;;;7.00;99.90;;;;;;5002797;28;20058;-34
2024/01/02 05:42:35;;;;;;;2.45;1.50;;;7.00;99.90;;;;;;5003474;28;20056;-34
2024/01/02 05:45:01;;;;;;;2.15;1.40;;;7.00;99.90;;;;;;5002779;28;20050;-34
2024/01/02 05:47:26;;;;;;;1.98;1.35;;;7.00;99.90;;;;;;5021454;28;20049;-34
2024/01/02 05:49:52;;;;;;;3.75;1.48;;;7.00;99.90;;;;;;5024257;28;20046;-35
2024/01/02 05:52:18;;;;;;;2.08;1.17;;;7.10;99.90;;;;;;5024830;28;20049;-34
2024/01/02 05:54:44;;;;;;;1.80;1.00;;;7.10;99.90;;;;;;5017884;28;20056;-34
2024/01/02 05:57:11;;;;;;;2.10;0.90;;;7.10;99.90;;;;;;5004310;28;20204;-34
2024/01/02 05:59:37;;;;;;;1.40;0.70;;;7.20;99.90;;;;;;5007146;28;20049;-36
2024/01/02 06:02:03;;;;;;;1.80;0.80;;;7.20;99.90;;;;;;5002702;28;20060;-34
2024/01/02 06:04:28;;;;;;;1.65;1.00;;;7.20;99.90;;;;;;4988143;28;20061;-35
2024/01/02 06:06:54;;;;;;;1.85;0.70;;;7.20;99.90;;;;;;5005900;28;20046;-34
2024/01/02 06:09:20;;;;;;;2.00;0.65;;;7.20;99.90;;;;;;5024101;28;20098;-34
2024/01/02 06:11:46;;;;;;;1.20;0.70;;;7.30;99.90;;;;;;5021622;28;20042;-34
2024/01/02 06:14:11;;;;;;;0.93;0.57;;;7.30;99.90;;;;;;4997720;28;20042;-33
2024/01/02 06:16:38;;;;;;;0.88;0.32;;;7.30;99.90;;;;;;5022731;28;20052;-34
2024/01/02 06:19:04;;;;;;;1.35;0.40;;;7.40;99.90;;;;;;5020934;28;20038;-34
2024/01/02 06:21:30;;;;;;;1.10;0.50;;;7.40;99.90;;;;;;5025568;28;20052;-34
2024/01/02 06:23:56;;;;;;;1.00;0.50;;;7.50;99.90;;;;;;5019623;28;20046;-34
2024/01/02 06:26:22;;;;;;;0.80;0.40;;;7.50;99.90;;;;;;5022749;28;20487;-34
2024/01/02 06:28:47;;;;;;;0.85;0.43;;;7.50;99.90;;;;;;5024648;28;20045;-34
2024/01/02 06:31:13;;;;;;;0.93;0.40;;;7.50;99.90;;;;;;5025602;28;20055;-34
2024/01/02 06:33:44;;;;;;;3.08;1.70;;;7.50;99.90;;;;;;5026156;28;20580;-34
2024/01/02 06:36:11;;;;;;;1.50;0.50;;;7.50;99.90;;;;;;5009459;28;20119;-34
2024/01/02 06:38:38;;;;;;;1.30;0.60;;;7.60;99.90;;;;;;5020380;28;20439;-34
2024/01/02 06:41:04;;;;;;;0.80;0.50;;;7.60;99.90;;;;;;5022522;28;20748;-33
2024/01/02 06:43:30;;;;;;;1.15;0.60;;;7.60;99.90;;;;;;5028246;28;20110;-33
2024/01/02 06:45:56;;;;;;;1.27;0.50;;;7.60;99.90;;;;;;5025531;28;20053;-34
2024/01/02 06:48:22;;;;;;;0.82;0.40;;;7.60;99.90;;;;;;5029207;28;20138;-35
2024/01/02 06:50:48;;;;;;;0.95;0.40;;;7.60;99.90;;;;;;5023081;28;20410;-36
2024/01/02 06:53:13;;;;;;;1.00;0.40;;;7.60;99.90;;;;;;5023496;28;20049;-35
2024/01/02 06:55:39;;;;;;;1.23;0.40;;;7.70;99.90;;;;;;5012744;28;20056;-35
2024/01/02 06:58:05;;;;;;;0.80;0.30;;;7.80;99.90;;;;;;5012519;28;20049;-35
2024/01/02 07:00:32;;;;;;;1.45;0.40;;;7.80;99.90;;;;;;5021233;28;20042;-35
2024/01/02 07:02:59;;;;;;;0.82;0.40;;;7.90;99.90;;;;;;5021399;28;20052;-35
2024/01/02 07:05:25;;;;;;;0.88;0.40;;;7.90;99.90;;;;;;5013564;28;20061;-34
2024/01/02 07:07:50;;;;;;;1.15;0.50;;;8.00;99.90;;;;;;5018586;28;20101;-34
2024/01/02 07:10:16;;;;;;;1.52;0.60;;;8.00;99.90;;;;;;5014398;28;20048;-35
2024/01/02 07:12:42;;;;;;;1.65;0.60;;;8.10;99.90;;;;;;5023004;28;20046;-34
2024/01/02 07:15:08;;;;;;;1.70;0.68;;;8.20;99.90;;;;;;5015842;28;20038;-34
2024/01/02 07:17:34;;;;;;;2.00;1.00;;;8.20;99.90;;;;;;5025809;28;20045;-35
2024/01/02 07:20:00;;;;;;;2.22;1.05;;;8.30;99.90;;;;;;5027665;28;20072;-36
2024/01/02 07:22:28;;;;;;;3.22;1.27;;;8.40;99.90;;;;;;5024592;28;20118;-35
2024/01/02 07:24:54;;;;;;;2.92;1.20;;;8.40;99.90;;;;;;5026869;28;20157;-35
2024/01/02 07:27:21;;;;;;;3.55;1.27;;;8.50;99.90;;;;;;5008894;28;20117;-35
2024/01/02 07:29:47;;;;;;;5.43;1.55;;;8.60;99.90;;;;;;5012557;28;20038;-35
2024/01/02 07:32:13;;;;;;;6.70;1.67;;;8.70;99.90;;;;;;5004823;28;20487;-35
2024/01/02 07:34:38;;;;;;;4.78;1.60;;;8.70;99.90;;;;;;5005952;28;20165;-35
2024/01/02 07:37:04;;;;;;;4.50;1.50;;;8.80;99.90;;;;;;5005504;28;20466;-35
2024/01/02 07:39:30;;;;;;;5.72;1.58;;;8.90;99.90;;;;;;5016007;28;20053;-34
2024/01/02 07:41:55;;;;;;;6.90;1.90;;;8.90;99.90;;;;;;5005495;28;20068;-34
2024/01/02 07:44:24;;;;;;;7.65;2.13;;;8.90;99.90;;;;;;5013696;28;20099;-35
2024/01/02 07:46:50;;;;;;;6.68;2.00;;;8.90;99.90;;;;;;5021645;28;20075;-35
2024/01/02 07:49:16;;;;;;;10.15;2.03;;;9.00;99.90;;;;;;5023458;28;20045;-35
2024/01/02 07:51:42;;;;;;;10.43;2.38;;;9.00;99.90;;;;;;5028666;28;20064;-35
2024/01/02 07:54:08;;;;;;;10.57;1.88;;;9.10;99.90;;;;;;5026890;28;20141;-35
2024/01/02 07:56:34;;;;;;;8.55;1.77;;;9.10;99.90;;;;;;5024923;28;20049;-44
2024/01/02 07:59:00;;;;;;;9.80;1.67;;;9.20;99.90;;;;;;5012946;28;20054;-35
2024/01/02 08:01:25;;;;;;;10.32;1.50;;;9.30;99.90;;;;;;5012220;28;20402;-35
2024/01/02 08:03:51;;;;;;;11.88;1.55;;;9.40;99.90;;;;;;5018199;28;20060;-34
2024/01/02 08:06:17;;;;;;;10.05;1.33;;;9.50;99.90;;;;;;5026097;28;20495;-35
2024/01/02 08:08:43;;;;;;;13.18;1.60;;;9.60;99.90;;;;;;5026266;28;20057;-36
2024/01/02 08:11:09;;;;;;;9.95;1.40;;;9.60;99.90;;;;;;5023063;28;20103;-36
2024/01/02 08:13:35;;;;;;;11.65;1.33;;;9.60;99.90;;;;;;5019135;28;20053;-35
2024/01/02 08:16:03;;;;;;;14.75;1.95;;;9.60;99.90;;;;;;5027615;28;20136;-35
2024/01/02 08:18:40;;;;;;;9.07;1.42;;;9.60;99.90;;;;;;5015670;28;20132;-35
2024/01/02 08:21:09;;;;;;;7.70;1.25;;;9.60;99.90;;;;;;5023225;28;20049;-35
2024/01/02 08:23:36;;;;;;;17.55;2.03;;;9.60;99.90;;;;;;5010437;28;20053;-35
2024/01/02 08:26:14;;;;;;;16.48;1.90;;;9.70;99.90;;;;;;5006846;28;20499;-35
2024/01/02 08:28:40;;;;;;;10.43;1.17;;;9.70;99.90;;;;;;5024409;28;20053;-35
2024/01/02 08:31:06;;;;;;;10.63;1.80;;;9.80;99.90;;;;;;5022905;28;21204;-34
2024/01/02 08:33:32;;;;;;;13.77;1.92;;;9.80;99.90;;;;;;5021456;28;20085;-35
2024/01/02 08:35:57;;;;;;;11.50;1.58;;;9.80;99.90;;;;;;5024562;28;20049;-34
2024/01/02 08:38:24;;;;;;;11.63;1.58;;;9.90;99.90;;;;;;5024154;28;20653;-36
2024/01/02 08:40:50;;;;;;;13.60;2.33;;;9.90;99.90;;;;;;5025735;28;20055;-34
2024/01/02 08:43:17;;;;;;;13.45;1.80;;;9.90;99.90;;;;;;5024146;28;20072;-34
2024/01/02 08:45:44;;;;;;;18.85;1.60;;;9.90;99.90;;;;;;5014767;28;20084;-35
2024/01/02 08:48:14;;;;;;;8.90;1.17;;;10.00;99.90;;;;;;5025237;28;20053;-35
2024/01/02 08:50:43;;;;;;;14.73;1.60;;;10.00;99.90;;;;;;5023735;28;20053;-34
2024/01/02 08:53:12;;;;;;;9.73;1.40;;;10.10;99.90;;;;;;5007353;28;20050;-35
2024/01/02 08:55:39;;;;;;;12.20;2.22;;;10.10;99.90;;;;;;5004276;28;20487;-35
2024/01/02 08:58:04;;;;;;;14.07;1.60;;;10.10;99.90;;;;;;5009246;28;20052;-35
2024/01/02 09:00:31;;;;;;;9.48;1.38;;;10.10;99.90;;;;;;5022659;28;20053;-35
2024/01/02 09:03:03;;;;;;;10.00;1.20;;;10.20;99.90;;;;;;5023882;28;20059;-35
2024/01/02 09:05:29;;;;;;;12.98;1.27;;;10.20;99.90;;;;;;5004522;28;20049;-35
2024/01/02 09:07:55;;;;;;;11.75;1.48;;;10.20;99.90;;;;;;5021964;28;20053;-35
2024/01/02 09:10:22;;;;;;;11.20;1.95;;;10.30;99.90;;;;;;5023602;28;20064;-35
2024/01/02 09:12:47;;;;;;;11.80;1.33;;;10.30;99.90;;;;;;5024129;28;20483;-35
2024/01/02 09:15:13;;;;;;;10.38;1.23;;;10.30;99.90;;;;;;5021077;28;20052;-35
2024/01/02 09:17:39;;;;;;;10.70;1.05;;;10.30;99.90;;;;;;5021878;28;20057;-35
2024/01/02 09:20:05;;;;;;;9.30;1.55;;;10.30;99.90;;;;;;5021500;28;20053;-35
2024/01/02 09:22:34;;;;;;;9.63;1.13;;;10.30;99.90;;;;;;5021080;28;20503;-35
2024/01/02 09:25:00;;;;;;;8.93;1.15;;;10.30;99.90;;;;;;5021931;28;20144;-35
2024/01/02 09:27:29;;;;;;;13.55;1.20;;;10.30;99.90;;;;;;4993375;28;20148;-35
2024/01/02 09:29:56;;;;;;;9.35;1.17;;;10.30;99.90;;;;;;5026093;28;20136;-35
2024/01/02 09:32:22;;;;;;;10.48;1.88;;;10.30;99.90;;;;;;5018979;28;20037;-35
2024/01/02 09:34:48;;;;;;;10.20;1.27;;;10.30;99.90;;;;;;5025286;28;20092;-35
2024/01/02 09:37:14;;;;;;;13.68;1.40;;;10.30;99.90;;;;;;5023881;28;20140;-35
2024/01/02 09:39:40;;;;;;;6.55;1.17;;;10.30;99.90;;;;;;5027546;28;20050;-35
2024/01/02 09:42:30;;;;;;;10.43;1.25;;;10.30;99.90;;;;;;5025348;28;20061;-35
2024/01/02 09:45:07;;;;;;;9.00;1.27;;;10.30;99.90;;;;;;5022240;28;20057;-35
2024/01/02 09:48:01;;;;;;;7.28;1.80;;;10.30;99.90;;;;;;5005373;28;20079;-35
2024/01/02 09:50:52;;;;;;;13.02;2.92;;;10.40;99.90;;;;;;5028820;28;20199;-35
2024/01/02 09:53:30;;;;;;;11.93;1.50;;;10.40;99.90;;;;;;5025341;28;20514;-36
2024/01/02 09:56:07;;;;;;;9.18;1.67;;;10.40;99.90;;;;;;5027397;28;20046;-35
2024/01/02 09:58:41;;;;;;;7.85;1.30;;;10.40;99.90;;;;;;5023743;28;20045;-36
2024/01/02 10:01:27;;;;;;;12.95;1.40;;;10.40;99.90;;;;;;5023550;28;20140;-35
2024/01/02 10:04:13;;;;;;;9.65;1.55;;;10.40;99.90;;;;;;5024926;28;20053;-35
2024/01/02 10:07:23;;;;;;;10.95;1.90;;;10.40;99.90;;;;;;5027954;28;20156;-39
2024/01/02 10:10:08;;;;;;;10.57;1.40;;;10.40;99.90;;;;;;5024740;28;20059;-35
2024/01/02 10:12:40;;;;;;;10.52;1.65;;;10.40;99.90;;;;;;5027927;28;20061;-36
2024/01/02 10:15:12;;;;;;;9.23;1.42;;;10.40;99.90;;;;;;5024883;28;20038;-36
2024/01/02 10:17:52;;;;;;;11.98;1.98;;;10.40;99.90;;;;;;5027349;28;20049;-35
2024/01/02 10:20:37;;;;;;;8.95;1.45;;;10.40;99.90;;;;;;5027195;28;20048;-35
2024/01/02 10:23:41;;;;;;;15.02;1.70;;;10.40;99.90;;;;;;5025719;28;20042;-35
2024/01/02 10:26:08;;;;;;;14.68;1.60;;;10.40;99.90;;;;;;5026705;28;20068;-36
2024/01/02 10:28:36;;;;;;;12.05;2.38;;;10.50;99.90;;;;;;5023277;28;20158;-36
2024/01/02 10:31:16;;;;;;;11.75;2.70;;;10.50;99.90;;;;;;5023255;28;20145;-35
2024/01/02 10:34:21;;;;;;;13.52;1.80;;;10.60;99.90;;;;;;5024369;28;20550;-36
2024/01/02 10:36:52;;;;;;;14.68;2.05;;;10.50;99.90;;;;;;5004906;28;20507;-38
2024/01/02 10:39:26;;;;;;;10.87;2.23;;;10.50;99.90;;;;;;5023491;28;20049;-36
2024/01/02 10:42:14;;;;;;;13.15;2.33;;;10.50;99.90;;;;;;5024211;28;20303;-35
2024/01/02 10:44:58;;;;;;;11.55;2.10;;;10.60;99.90;;;;;;5023720;28;20061;-35
2024/01/02 10:47:52;;;;;;;16.33;2.47;;;10.60;99.90;;;;;;5023984;28;21206;-36
2024/01/02 10:50:23;;;;;;;18.27;3.22;;;10.60;99.90;;;;;;5024990;28;20087;-35
2024/01/02 10:53:35;;;;;;;19.17;2.72;;;10.60;99.90;;;;;;5026355;28;20103;-36
2024/01/02 10:56:18;;;;;;;21.00;3.55;;;10.60;99.90;;;;;;5014158;28;20057;-36
2024/01/02 10:59:03;;;;;;;20.00;2.67;;;10.60;99.90;;;;;;5014471;28;20056;-36
2024/01/02 11:01:32;;;;;;;17.92;3.17;;;10.60;99.90;;;;;;5016954;28;21289;-36
2024/01/02 11:04:05;;;;;;;21.52;3.05;;;10.60;99.90;;;;;;5002933;28;20069;-37
2024/01/02 11:06:51;;;;;;;16.90;2.78;;;10.60;99.90;;;;;;5002223;28;20066;-36
2024/01/02 11:09:26;;;;;;;26.58;2.95;;;10.70;99.90;;;;;;5020944;28;20064;-36
2024/01/02 11:11:54;;;;;;;16.38;2.55;;;10.70;99.90;;;;;;5026149;28;20056;-35
2024/01/02 11:14:21;;;;;;;17.67;3.17;;;10.60;99.90;;;;;;5024318;28;20049;-36
2024/01/02 11:16:49;;;;;;;20.23;4.18;;;10.70;99.90;;;;;;5025250;28;20056;-35
2024/01/02 11:19:16;;;;;;;24.98;3.05;;;10.70;99.90;;;;;;5026316;28;20781;-35
2024/01/02 11:21:54;;;;;;;21.65;2.95;;;10.70;99.90;;;;;;5025009;28;20495;-35
2024/01/02 11:24:25;;;;;;;28.30;3.35;;;10.70;99.90;;;;;;5026845;28;20072;-36
2024/01/02 11:26:56;;;;;;;21.38;3.55;;;10.70;99.90;;;;;;5024776;28;20053;-34
2024/01/02 11:29:23;;;;;;;15.43;2.72;;;10.70;99.90;;;;;;5024031;28;20053;-36
2024/01/02 11:31:52;;;;;;;15.35;3.65;;;10.70;99.90;;;;;;5023232;28;20483;-35
2024/01/02 11:34:27;;;;;;;21.33;3.45;;;10.70;99.90;;;;;;5018207;28;20049;-35
2024/01/02 11:37:36;;;;;;;20.75;4.22;;;10.70;99.90;;;;;;5021742;28;20190;-35
2024/01/02 11:40:09;;;;;;;16.25;3.00;;;10.70;99.90;;;;;;5022810;28;20062;-35
2024/01/02 11:42:51;;;;;;;23.15;3.83;;;10.70;99.90;;;;;;5024544;28;20410;-36
2024/01/02 11:45:20;;;;;;;17.85;3.28;;;10.70;99.90;;;;;;5023004;28;20061;-35
2024/01/02 11:48:07;;;;;;;22.20;3.45;;;10.70;99.90;;;;;;5024810;28;20054;-35
2024/01/02 11:50:49;;;;;;;17.63;3.22;;;10.70;99.90;;;;;;5003826;28;20058;-35
2024/01/02 11:53:43;;;;;;;23.25;3.97;;;10.70;99.90;;;;;;5013445;28;20061;-34
2024/01/02 11:56:12;;;;;;;16.05;3.10;;;10.70;99.90;;;;;;5023351;28;20392;-35
2024/01/02 11:58:50;;;;;;;18.70;3.83;;;10.70;99.90;;;;;;5023741;28;20053;-35
2024/01/02 12:01:25;;;;;;;27.60;5.07;;;10.70;99.90;;;;;;5016877;28;20529;-36
2024/01/02 12:03:54;;;;;;;22.27;3.72;;;10.70;99.90;;;;;;5019573;28;20053;-35
2024/01/02 12:06:29;;;;;;;25.90;4.97;;;10.70;99.90;;;;;;5023079;28;20581;-35
2024/01/02 12:09:04;;;;;;;20.70;5.05;;;10.70;99.90;;;;;;5019948;28;20053;-36
2024/01/02 12:11:36;;;;;;;22.88;6.30;;;10.70;99.90;;;;;;5021351;28;20522;-35
2024/01/02 12:14:23;;;;;;;29.17;7.10;;;10.70;99.90;;;;;;5005633;28;20049;-36
2024/01/02 12:16:51;;;;;;;31.70;6.50;;;10.70;99.90;;;;;;5020996;28;20064;-35
2024/01/02 12:19:24;;;;;;;23.20;5.20;;;10.70;99.90;;;;;;5021381;28;20120;-35
2024/01/02 12:21:57;;;;;;;26.50;4.88;;;10.70;99.90;;;;;;5017973;28;20495;-37
2024/01/02 12:24:24;;;;;;;25.23;4.70;;;10.70;99.90;;;;;;5006482;28;20057;-35
2024/01/02 12:26:52;;;;;;;18.67;4.32;;;10.70;99.90;;;;;;5010277;28;20068;-35
2024/01/02 12:29:48;;;;;;;24.38;4.00;;;10.60;99.90;;;;;;5022714;28;20050;-36
2024/01/02 12:32:38;;;;;;;23.98;4.03;;;10.60;99.90;;;;;;5012585;28;20519;-36
2024/01/02 12:35:09;;;;;;;24.17;4.85;;;10.60;99.90;;;;;;5018030;28;20414;-36
2024/01/02 12:37:49;;;;;;;21.15;4.95;;;10.60;99.90;;;;;;5020729;28;20050;-36
2024/01/02 12:40:28;;;;;;;20.00;4.53;;;10.60;99.90;;;;;;5010727;28;20535;-35
2024/01/02 12:42:56;;;;;;;23.98;4.60;;;10.60;99.90;;;;;;5004569;28;20100;-35
2024/01/02 12:45:33;;;;;;;19.92;4.10;;;10.60;99.90;;;;;;5002662;28;20058;-35
2024/01/02 12:48:05;;;;;;;20.02;4.50;;;10.60;99.90;;;;;;5001269;28;20056;-36
2024/01/02 12:50:35;;;;;;;23.23;4.30;;;10.50;99.90;;;;;;5001979;28;20097;-35
2024/01/02 12:53:09;;;;;;;17.25;4.20;;;10.50;99.90;;;;;;5002977;28;20483;-35
2024/01/02 12:55:49;;;;;;;24.17;4.25;;;10.60;99.90;;;;;;5005246;28;20057;-35
2024/01/02 12:58:15;;;;;;;20.77;4.38;;;10.50;99.90;;;;;;5014147;28;20080;-35
2024/01/02 13:00:41;;;;;;;27.40;4.22;;;10.50;99.90;;;;;;5015611;28;20045;-37